sensor_id;sensor_type;location;lat;lon;timestamp;pressure;altitude;pressure_sealevel;temperature;humidity
75247;BME280;63844;50.042;19.224;2023-09-18T22:35:11;98371.48;;;22.80;47.78
75247;BME280;63844;50.042;19.224;2023-09-18T22:36:48;98371.37;;;22.68;48.13
75247;BME280;63844;50.042;19.224;2023-09-18T22:55:56;98359.48;;;22.08;48.39
75247;BME280;63844;50.042;19.224;2023-09-18T22:57:35;98356.48;;;22.07;48.34
75247;BME280;63844;50.042;19.224;2023-09-18T22:59:12;98355.40;;;22.04;48.40
75247;BME280;63844;50.042;19.224;2023-09-18T23:00:49;98350.79;;;22.02;48.23
75247;BME280;63844;50.042;19.224;2023-09-18T23:02:26;98349.63;;;22.00;48.12
75247;BME280;63844;50.042;19.224;2023-09-18T23:04:04;98345.77;;;21.98;47.99
75247;BME280;63844;50.042;19.224;2023-09-18T23:05:40;98348.48;;;21.95;47.98
75247;BME280;63844;50.042;19.224;2023-09-18T23:07:17;98348.49;;;21.93;47.87
75247;BME280;63844;50.042;19.224;2023-09-18T23:08:54;98347.73;;;21.90;47.58
75247;BME280;63844;50.042;19.224;2023-09-18T23:10:31;98349.94;;;21.88;47.83
75247;BME280;63844;50.042;19.224;2023-09-18T23:12:11;98349.59;;;21.88;48.11
75247;BME280;63844;50.042;19.224;2023-09-18T23:13:50;98352.44;;;21.93;48.75
75247;BME280;63844;50.042;19.224;2023-09-18T23:15:27;98349.36;;;22.00;49.44
75247;BME280;63844;50.042;19.224;2023-09-18T23:17:05;98348.00;;;22.08;50.28
75247;BME280;63844;50.042;19.224;2023-09-18T23:18:42;98339.55;;;22.15;51.13
75247;BME280;63844;50.042;19.224;2023-09-18T23:20:20;98337.13;;;22.22;51.75
75247;BME280;63844;50.042;19.224;2023-09-18T23:22:00;98338.40;;;22.29;52.64
75247;BME280;63844;50.042;19.224;2023-09-18T23:23:38;98336.72;;;22.35;53.16
75247;BME280;63844;50.042;19.224;2023-09-18T23:25:14;98330.98;;;22.40;54.00
75247;BME280;63844;50.042;19.224;2023-09-18T23:26:50;98333.17;;;22.42;53.51
75247;BME280;63844;50.042;19.224;2023-09-18T23:28:28;98330.14;;;22.39;52.98
75247;BME280;63844;50.042;19.224;2023-09-18T23:30:07;98328.31;;;22.35;52.59
75247;BME280;63844;50.042;19.224;2023-09-18T23:31:48;98330.25;;;22.29;52.22
75247;BME280;63844;50.042;19.224;2023-09-18T23:33:24;98331.40;;;22.24;51.87
75247;BME280;63844;50.042;19.224;2023-09-18T23:35:05;98332.89;;;22.24;52.31
75247;BME280;63844;50.042;19.224;2023-09-18T23:36:48;98334.17;;;22.30;52.04
75247;BME280;63844;50.042;19.224;2023-09-18T23:38:24;98338.33;;;22.34;52.09
75247;BME280;63844;50.042;19.224;2023-09-18T23:40:03;98334.66;;;22.37;51.84
75247;BME280;63844;50.042;19.224;2023-09-18T23:41:42;98339.68;;;22.40;52.06
75247;BME280;63844;50.042;19.224;2023-09-18T23:43:18;98337.54;;;22.43;51.86
75247;BME280;63844;50.042;19.224;2023-09-18T23:44:56;98337.79;;;22.46;51.92
75247;BME280;63844;50.042;19.224;2023-09-18T23:46:33;98333.64;;;22.48;52.13
75247;BME280;63844;50.042;19.224;2023-09-18T23:48:17;98328.83;;;22.50;52.09
75247;BME280;63844;50.042;19.224;2023-09-18T23:49:59;98333.63;;;22.52;52.20
75247;BME280;63844;50.042;19.224;2023-09-18T23:51:36;98331.91;;;22.55;52.39
75247;BME280;63844;50.042;19.224;2023-09-18T23:53:13;98329.23;;;22.57;52.55
75247;BME280;63844;50.042;19.224;2023-09-18T23:54:51;98323.13;;;22.60;52.57
75247;BME280;63844;50.042;19.224;2023-09-18T23:56:27;98322.15;;;22.62;52.56
75247;BME280;63844;50.042;19.224;2023-09-18T23:58:05;98316.29;;;22.64;52.75
75247;BME280;63844;50.042;19.224;2023-09-18T23:59:42;98316.02;;;22.66;52.90
